This is the latest recevied weather packets stored in our database for station/object WO5CID. If no packets are shown the sender has not sent any weather packets the latest 10 day(s).
| Time | Temp. | Humidity | Pressure | Rain* | Wind** | Luminosity | Snow |
|---|---|---|---|---|---|---|---|
| 1777825514 | 25° C | 48% | 1019.4 hPa | 0 mm | - | 987 W/m² | - |
| 1777825212 | 25° C | 53% | 1019.1 hPa | 0 mm | - | 972 W/m² | - |
| 1777824903 | 23.89° C | 54% | 1019.5 hPa | 0 mm | - | 944 W/m² | - |
| 1777824599 | 23.33° C | 57% | 1019.6 hPa | 0 mm | - | 973 W/m² | - |
| 1777824296 | 24.44° C | 54% | 1019.2 hPa | 0 mm | - | 220 W/m² | - |
| 1777823991 | 25° C | 53% | 1019.3 hPa | 0 mm | - | 363 W/m² | - |
| 1777823688 | 25° C | 48% | 1019.3 hPa | 0 mm | - | 1033 W/m² | - |
| 1777823385 | 24.44° C | 53% | 1019.1 hPa | 0 mm | - | 968 W/m² | - |
| 1777823083 | 23.89° C | 54% | 1018.9 hPa | 0 mm | - | 964 W/m² | - |
| 1777822781 | 24.44° C | 53% | 1019.2 hPa | 0 mm | - | 211 W/m² | - |
| 1777822478 | 23.89° C | 54% | 1019.1 hPa | 0 mm | - | 914 W/m² | - |
| 1777822176 | 23.89° C | 56% | 1019.1 hPa | 0 mm | - | 286 W/m² | - |
| 1777821873 | 22.78° C | 62% | 1019.2 hPa | 0 mm | - | 897 W/m² | - |
| 1777821570 | 23.33° C | 59% | 1019 hPa | 0 mm | - | 316 W/m² | - |
| 1777821268 | 23.89° C | 56% | 1019.2 hPa | 0 mm | - | 871 W/m² | - |
| 1777820965 | 23.33° C | 59% | 1019 hPa | 0 mm | - | 873 W/m² | - |
| 1777820661 | 22.78° C | 57% | 1019.1 hPa | 0 mm | - | 852 W/m² | - |
| 1777820357 | 22.78° C | 60% | 1019.1 hPa | 0 mm | - | 846 W/m² | - |
| 1777820055 | 22.78° C | 59% | 1019.2 hPa | 0 mm | - | 207 W/m² | - |
| 1777819752 | 22.78° C | 60% | 1019 hPa | 0 mm | - | 767 W/m² | - |
| 1777819450 | 22.78° C | 61% | 1019.3 hPa | 0 mm | - | 279 W/m² | - |
| 1777819148 | 22.22° C | 64% | 1019 hPa | 0 mm | - | 719 W/m² | - |
| 1777818844 | 21.11° C | 67% | 1019.1 hPa | 0 mm | - | 822 W/m² | - |
| 1777818540 | 20.56° C | 66% | 1019.2 hPa | 0 mm | - | 721 W/m² | - |
| 1777818238 | 21.67° C | 68% | 1019.2 hPa | 0 mm | - | 647 W/m² | - |
* Rain latest hour (hover to see other rain measurements)
** Current wind speed in m/s (hover to see current wind gust speed)